Latest Coastal Weather Observations for St Lawrence

IDQ60701

Issued at 9:31 am EST Wednesday 22 April 2015 (issued every 10 minutes, with the page automatically refreshed every 10 minutes)

About coastal observations | Map of coastal stations | Coastal observations for QLD | Marine services | Other Formats
Station Details ID: 033210 Name: ST LAWRENCE Lat: -22.35 Lon: 149.52 Height: 9.19 m
Data from the previous 72 hours. | See also: Recent months at St Lawrence
Date/Time
EST
Temp

°C
Wind Pressure Rain
since 9am
mm
Weather Cloud Vis
km
Sea
Height
m
Swell
Dir
 
Speed
knots
Gust
knots
hPa Trend Height
m
Period
s
Dir
22/09:30am 20.0 S 9 14 1016.3 - 0.0 - - - - - - -
22/09:00am 18.9 S 9 15 1016.4 - 0.0 - - - - - - -
22/08:30am 17.9 S 7 11 1016.6 - 0.0 - - - - - - -
22/08:00am 16.6 SSW 6 9 1016.4 - 0.0 - - - - - - -
22/07:30am 14.2 SW 4 6 1016.3 - 0.0 - - - - - - -
22/07:00am 10.4 CALM 0 0 1016.2 - 0.0 - - - - - - -
22/06:30am 9.5 SW 3 3 1016.2 - 0.0 - - - - - - -
22/06:00am 8.9 CALM 0 0 1015.8 - 0.0 - - - - - - -
22/05:30am 8.9 CALM 0 0 1015.6 - 0.0 - - - - - - -
22/05:00am 9.8 SSW 4 5 1015.3 - 0.0 - - - - - - -
22/04:30am 9.6 CALM 0 0 1015.3 - 0.0 - - - - - - -
22/04:00am 9.6 CALM 0 0 1015.3 - 0.0 - - - - - - -
22/03:30am 9.6 SW 1 4 1015.3 - 0.0 - - - - - - -
22/03:00am 10.3 SW 1 4 1015.6 - 0.0 - - - - - - -
22/02:30am 10.4 CALM 0 0 1015.6 - 0.0 - - - - - - -
22/02:00am 11.0 SW 2 3 1015.7 - 0.0 - - - - - - -
22/01:30am 10.5 CALM 0 0 1016.0 - 0.0 - - - - - - -
22/01:00am 11.3 WSW 3 4 1016.1 - 0.0 - - - - - - -
22/12:30am 10.7 SW 2 4 1016.4 - 0.0 - - - - - - -
22/12:00am 12.3 SSW 4 4 1016.6 - 0.0 - - - - - - -
 
Date/Time
EST
Temp

°C
Wind Pressure Rain
since 9am
mm
Weather Cloud Vis
km
Sea
Height
m
Swell
Dir
 
Speed
knots
Gust
knots
hPa Trend Height
m
Period
s
Dir
21/11:30pm 12.5 SSW 1 4 1016.7 - 0.0 - - - - - - -
21/11:00pm 12.8 S 3 3 1017.1 - 0.0 - - - - - - -
21/10:30pm 13.7 SSW 1 3 1017.3 - 0.0 - - - - - - -
21/10:00pm 15.3 S 4 5 1017.1 - 0.0 - - - - - - -
21/09:30pm 16.3 S 5 7 1017.2 - 0.0 - - - - - - -
21/09:00pm 16.4 SSE 5 6 1017.2 - 0.0 - - - - - - -
21/08:30pm 16.9 SSE 6 8 1016.8 - 0.0 - - - - - - -
21/08:00pm 17.6 S 5 7 1016.6 - 0.0 - - - - - - -
21/07:30pm 18.0 S 5 7 1016.4 - 0.0 - - - - - - -
21/07:00pm 19.1 S 4 5 1016.0 - 0.0 - - - - - - -
21/06:30pm 20.4 SE 4 7 1015.6 - 0.0 - - - - - - -
21/06:00pm 21.3 SSE 4 5 1015.2 - 0.0 - - - - - - -
21/05:30pm 23.2 SSE 6 8 1015.1 - 0.0 - - - - - - -
21/05:00pm 24.5 S 6 12 1014.7 - 0.0 - - - - - - -
21/04:30pm 25.3 SSE 7 11 1014.4 - 0.0 - - - - - - -
21/04:00pm 25.4 S 8 12 1014.3 - 0.0 - - - - - - -
21/03:30pm 25.4 S 7 13 1014.2 - 0.0 - - - - - - -
21/03:00pm 25.4 S 8 14 1014.2 - 0.0 - - - - - - -
21/02:30pm 25.0 SSW 7 11 1014.5 - 0.0 - - - - - - -
21/02:00pm 24.9 S 8 13 1014.8 - 0.0 - - - - - - -
21/01:30pm 25.5 S 8 14 1015.2 - 0.0 - - - - - - -
21/01:00pm 25.1 S 8 12 1015.7 - 0.0 - - - - - - -
21/12:30pm 24.1 SSE 7 13 1016.1 - 0.0 - - - - - - -
21/12:00pm 23.5 SSE 7 13 1016.8 - 0.0 - - - - - - -
21/11:30am 22.9 S 9 13 1017.4 - 0.0 - - - - - - -
21/11:00am 21.8 S 9 13 1018.2 - 0.0 - - - - - - -
21/10:30am 21.4 SSW 9 14 1018.7 - 0.0 - - - - - - -
21/10:00am 20.8 SSW 9 15 1018.9 - 0.0 - - - - - - -
21/09:30am 19.8 S 9 17 1019.2 - 0.0 - - - - - - -
21/09:00am 19.7 S 9 16 1019.3 - 0.0 - - - - - - -
21/08:30am 18.6 S 10 15 1019.3 - 0.0 - - - - - - -
21/08:00am 18.1 SSW 9 16 1019.2 - 0.0 - - - - - - -
21/07:30am 17.3 S 7 12 1019.2 - 0.0 - - - - - - -
21/07:00am 15.8 SSW 6 9 1018.9 - 0.0 - - - - - - -
21/06:30am 15.3 SSW 6 9 1018.5 - 0.0 - - - - - - -
21/06:00am 15.6 SSW 5 9 1018.3 - 0.0 - - - - - - -
21/05:30am 15.9 SSW 6 9 1018.4 - 0.0 - - - - - - -
21/05:00am 15.8 SSW 7 10 1018.1 - 0.0 - - - - - - -
21/04:30am 16.0 SSW 6 10 1018.0 - 0.0 - - - - - - -
21/04:00am 16.1 SSW 7 11 1017.9 - 0.0 - - - - - - -
21/03:30am 16.2 SSW 6 11 1017.6 - 0.0 - - - - - - -
21/03:00am 16.5 SSW 7 12 1017.5 - 0.0 - - - - - - -
21/02:30am 16.8 S 8 14 1017.5 - 0.0 - - - - - - -
21/02:00am 17.0 S 9 16 1017.9 - 0.0 - - - - - - -
21/01:30am 17.3 S 8 13 1018.0 - 0.0 - - - - - - -
21/01:00am 17.7 S 9 13 1018.7 - 0.0 - - - - - - -
21/12:30am 17.8 S 9 16 1018.4 - 0.0 - - - - - - -
21/12:00am 17.6 S 7 10 1018.7 - 0.0 - - - - - - -
 
Date/Time
EST
Temp

°C
Wind Pressure Rain
since 9am
mm
Weather Cloud Vis
km
Sea
Height
m
Swell
Dir
 
Speed
knots
Gust
knots
hPa Trend Height
m
Period
s
Dir
20/11:30pm 17.8 SSW 7 12 1018.4 - 0.0 - - - - - - -
20/11:00pm 17.8 S 8 12 1018.1 - 0.0 - - - - - - -
20/10:30pm 18.1 S 9 15 1018.4 - 0.0 - - - - - - -
20/10:00pm 18.3 S 7 9 1018.8 - 0.0 - - - - - - -
20/09:30pm 18.3 S 7 10 1018.9 - 0.0 - - - - - - -
20/09:00pm 18.6 S 9 13 1018.5 - 0.0 - - - - - - -
20/08:30pm 18.8 S 11 16 1018.7 - 0.0 - - - - - - -
20/08:00pm 19.6 S 9 16 1018.4 - 0.0 - - - - - - -
20/07:30pm 20.1 SSE 9 15 1018.1 - 0.0 - - - - - - -
20/07:00pm 20.6 SSE 8 15 1017.5 - 0.0 - - - - - - -
20/06:30pm 21.4 S 7 11 1017.2 - 0.0 - - - - - - -
20/06:00pm 21.7 S 8 14 1016.7 - 0.0 - - - - - - -
20/05:30pm 21.9 SSE 8 12 1016.2 - 0.0 - - - - - - -
20/05:00pm 23.2 S 7 11 1016.0 - 0.0 - - - - - - -
20/04:30pm 24.2 SW 8 13 1015.9 - 0.0 - - - - - - -
20/04:00pm 24.9 SSW 7 13 1015.6 - 0.0 - - - - - - -
20/03:30pm 25.3 S 10 16 1015.3 - 0.0 - - - - - - -
20/03:00pm 25.1 S 10 14 1015.1 - 0.0 - - - - - - -
20/02:30pm 24.7 S 11 18 1015.1 - 0.0 - - - - - - -
20/02:00pm 26.3 S 10 17 1015.2 - 0.0 - - - - - - -
20/01:30pm 26.4 S 11 16 1015.1 - 0.0 - - - - - - -
20/01:00pm 27.4 S 10 17 1015.9 - 0.0 - - - - - - -
20/12:30pm 26.9 S 11 17 1016.4 - 0.0 - - - - - - -
20/12:00pm 25.9 SSE 10 15 1016.7 - 0.0 - - - - - - -
20/11:30am 26.3 S 9 17 1017.4 - 0.0 - - - - - - -
20/11:00am 25.6 S 10 16 1017.7 - 0.0 - - - - - - -
20/10:30am 25.8 S 10 16 1017.9 - 0.0 - - - - - - -
20/10:00am 25.0 S 11 17 1017.9 - 0.0 - - - - - - -
20/09:30am 24.8 S 12 18 1017.8 - 0.0 - - - - - - -
20/09:00am 24.8 S 11 17 1017.7 - 0.0 - - - - - - -
20/08:30am 24.7 S 9 16 1017.3 - 0.0 - - - - - - -
20/08:00am 23.6 S 8 13 1017.2 - 0.0 - - - - - - -
20/07:30am 22.6 S 6 9 1017.1 - 0.0 - - - - - - -
20/07:00am 22.2 S 7 9 1016.8 - 0.0 - - - - - - -
20/06:30am 22.3 S 7 10 1016.2 - 0.0 - - - - - - -
20/06:00am 22.1 S 5 9 1015.8 - 0.0 - - - - - - -
20/05:30am 22.4 SSE 4 7 1015.6 - 0.0 - - - - - - -
20/05:00am 22.1 S 4 6 1015.7 - 0.0 - - - - - - -
20/04:30am 22.0 S 6 7 1015.7 - 0.0 - - - - - - -
20/04:00am 21.9 S 6 9 1015.6 - 0.0 - - - - - - -
20/03:30am 21.8 S 6 9 1015.7 - 0.0 - - - - - - -
20/03:00am 21.7 S 5 8 1015.8 - 0.0 - - - - - - -
20/02:30am 21.7 S 5 7 1016.0 - 0.0 - - - - - - -
20/02:00am 21.7 S 5 7 1016.3 - 0.0 - - - - - - -
20/01:30am 21.8 SSE 5 6 1016.3 - 0.0 - - - - - - -
20/01:00am 21.3 S 3 5 1016.8 - 0.0 - - - - - - -
20/12:30am 21.0 S 2 4 1017.0 - 0.0 - - - - - - -
20/12:00am 21.5 SSW 3 5 1017.3 - 0.0 - - - - - - -
 
Date/Time
EST
Temp

°C
Wind Pressure Rain
since 9am
mm
Weather Cloud Vis
km
Sea
Height
m
Swell
Dir
 
Speed
knots
Gust
knots
hPa Trend Height
m
Period
s
Dir
19/11:30pm 21.1 WSW 5 6 1017.4 - 0.0 - - - - - - -
19/11:00pm 21.4 CALM 0 0 1017.3 - 0.0 - - - - - - -
19/10:30pm 21.7 CALM 0 0 1017.1 - 0.0 - - - - - - -
19/10:00pm 22.0 CALM 0 0 1017.0 - 0.0 - - - - - - -
19/09:30pm 22.3 CALM 0 0 1017.0 - 0.0 - - - - - - -
19/09:00pm 22.7 CALM 0 0 1016.6 - 0.0 - - - - - - -
19/08:30pm 23.1 CALM 0 0 1016.7 - 0.0 - - - - - - -
19/08:00pm 23.4 CALM 0 0 1016.4 - 0.0 - - - - - - -
19/07:30pm 24.2 CALM 0 0 1016.3 - 0.0 - - - - - - -
19/07:00pm 24.6 NE 4 5 1015.9 - 0.0 - - - - - - -
19/06:30pm 25.0 NNE 3 5 1015.6 - 0.0 - - - - - - -
19/06:00pm 25.6 NNE 6 8 1015.5 - 0.0 - - - - - - -
19/05:30pm 26.2 NNE 7 9 1015.1 - 0.0 - - - - - - -
19/05:00pm 26.9 NNE 7 10 1014.9 - 0.0 - - - - - - -
19/04:30pm 27.5 NNE 7 9 1014.7 - 0.0 - - - - - - -
19/04:00pm 28.0 NE 7 9 1014.5 - 0.0 - - - - - - -
19/03:30pm 29.0 NNE 8 11 1014.4 - 0.0 - - - - - - -
19/03:00pm 28.7 NE 6 7 1014.5 - 0.0 - - - - - - -
19/02:30pm 28.3 NNE 7 9 1014.9 - 0.0 - - - - - - -
19/02:00pm 28.5 NNE 8 10 1015.0 - 0.0 - - - - - - -
19/01:30pm 29.0 NNE 10 13 1015.1 - 0.0 - - - - - - -
19/01:00pm 29.8 NE 5 9 1015.7 - 0.0 - - - - - - -
19/12:30pm 29.8 NE 5 7 1016.2 - 0.0 - - - - - - -
19/12:00pm 29.2 NE 5 8 1017.0 - 0.0 - - - - - - -
19/11:30am 28.5 N 5 8 1017.6 - 0.0 - - - - - - -
19/11:00am 28.8 NNE 6 8 1018.0 - 0.0 - - - - - - -
19/10:30am 27.1 ENE 4 7 1018.3 - 0.0 - - - - - - -
19/10:00am 27.5 ENE 5 7 1018.5 - 0.0 - - - - - - -

Other Formats:

Comma delimited format used in spreadsheet applications
http://www.bom.gov.au/fwo/IDQ60701/IDQ60701.95369.axf

JavaScript Object Notation format (JSON) in row-major order
http://www.bom.gov.au/fwo/IDQ60701/IDQ60701.95369.json